Big Bear Station Historical Data
Daily Summary for March 25, 2017 Units:  English    Metric   Both
« Previous Day
Next Day »
Daily Weekly Monthly Yearly Custom
  High: Low: Average:
Temperature: 50.7 °F 29.8 °F 40 °F
Dew Point: 35.6 °F 22.7 °F 32 °F
Humidity: 92 % 46 % 74 %
Wind Speed: 7.3 mph 0.0 mph 2.2 mph
Wind Gust: -999.0 mph - -
Wind:- - West
Pressure: 30.22 in 30.09 in -
Precipitation: 0.00 in    
Historical Graphs
 
 
Tabular Data for March 25, 2017
Time Temperature Dew Point Pressure Wind Wind Speed Wind Gust Humidity Rainfall Rate (Hourly)
00:05 39.4 °F 34.7 °F 30.22 in Calm   -999.0 mph 83 % 0 in
00:20 39.2 °F 34.5 °F 30.21 in WSW 2.7 mph -999.0 mph 83 % 0 in
00:35 39.0 °F 34.3 °F 30.21 in NNW 1.7 mph -999.0 mph 83 % 0 in
00:51 39.0 °F 34.3 °F 30.21 in NNW 2.7 mph -999.0 mph 83 % 0 in
01:06 39.0 °F 34.3 °F 30.21 in WNW 1.1 mph -999.0 mph 83 % 0 in
01:21 39.0 °F 33.7 °F 30.20 in WNW 1.1 mph -999.0 mph 81 % 0 in
01:36 39.2 °F 33.6 °F 30.20 in WSW 1.1 mph -999.0 mph 80 % 0 in
01:51 38.8 °F 31.6 °F 30.20 in WNW 3.7 mph -999.0 mph 75 % 0 in
02:07 38.5 °F 27.0 °F 30.19 in SSW 1.1 mph -999.0 mph 63 % 0 in
02:22 38.3 °F 28.3 °F 30.19 in SW 2.7 mph -999.0 mph 67 % 0 in
02:52 38.5 °F 25.0 °F 30.19 in NNW 1.1 mph -999.0 mph 58 % 0 in
03:07 38.8 °F 22.7 °F 30.17 in NW 4.2 mph -999.0 mph 52 % 0 in
03:23 37.2 °F 28.0 °F 30.18 in NNW 4.7 mph -999.0 mph 69 % 0 in
03:38 38.1 °F 29.2 °F 30.16 in WNW 3.2 mph -999.0 mph 70 % 0 in
03:53 38.1 °F 28.8 °F 30.16 in NW 2.7 mph -999.0 mph 69 % 0 in
04:08 38.3 °F 29.0 °F 30.15 in SE 2.7 mph -999.0 mph 69 % 0 in
04:23 38.7 °F 29.8 °F 30.14 in SW 6.8 mph -999.0 mph 70 % 0 in
04:39 38.7 °F 30.5 °F 30.14 in South 2.2 mph -999.0 mph 72 % 0 in
04:54 38.3 °F 30.7 °F 30.14 in NE 2.2 mph -999.0 mph 74 % 0 in
05:10 38.3 °F 31.4 °F 30.14 in NW 1.7 mph -999.0 mph 76 % 0 in
05:25 37.9 °F 31.3 °F 30.13 in NW 3.2 mph -999.0 mph 77 % 0 in
05:40 37.4 °F 31.2 °F 30.13 in WNW 3.2 mph -999.0 mph 78 % 0 in
05:55 36.7 °F 31.1 °F 30.13 in NW 2.2 mph -999.0 mph 80 % 0 in
06:11 36.1 °F 30.8 °F 30.13 in South 1.1 mph -999.0 mph 81 % 0 in
06:26 35.6 °F 30.6 °F 30.14 in Calm   -999.0 mph 82 % 0 in
06:41 35.2 °F 30.3 °F 30.14 in WNW 2.7 mph -999.0 mph 82 % 0 in
06:56 35.1 °F 30.5 °F 30.14 in West 2.7 mph -999.0 mph 83 % 0 in
07:12 34.7 °F 30.1 °F 30.14 in NW 3.2 mph -999.0 mph 83 % 0 in
07:28 34.5 °F 30.2 °F 30.14 in NNW 2.2 mph -999.0 mph 84 % 0 in
07:43 34.3 °F 30.0 °F 30.14 in NNW 2.2 mph -999.0 mph 84 % 0 in
07:58 34.9 °F 30.9 °F 30.14 in NW 1.7 mph -999.0 mph 85 % 0 in
08:14 35.6 °F 31.2 °F 30.14 in NW 2.2 mph -999.0 mph 84 % 0 in
08:29 36.5 °F 31.8 °F 30.14 in NNW 2.2 mph -999.0 mph 83 % 0 in
08:44 37.0 °F 32.0 °F 30.13 in NW 2.7 mph -999.0 mph 82 % 0 in
08:59 37.8 °F 32.5 °F 30.14 in NNW 4.2 mph -999.0 mph 81 % 0 in
09:15 37.8 °F 32.2 °F 30.14 in East 5.8 mph -999.0 mph 80 % 0 in
09:30 38.1 °F 31.5 °F 30.14 in WNW 3.2 mph -999.0 mph 77 % 0 in
09:45 38.8 °F 32.2 °F 30.14 in NW 2.7 mph -999.0 mph 77 % 0 in
10:00 39.4 °F 32.1 °F 30.14 in South 2.2 mph -999.0 mph 75 % 0 in
10:15 40.5 °F 32.2 °F 30.14 in North 1.7 mph -999.0 mph 72 % 0 in
10:31 41.0 °F 31.6 °F 30.14 in NW 2.2 mph -999.0 mph 69 % 0 in
10:46 42.1 °F 32.3 °F 30.13 in West 3.2 mph -999.0 mph 68 % 0 in
11:02 44.2 °F 33.2 °F 30.14 in NW 4.7 mph -999.0 mph 65 % 0 in
11:17 44.8 °F 33.0 °F 30.13 in NW 4.7 mph -999.0 mph 63 % 0 in
11:32 46.0 °F 33.7 °F 30.13 in SSW 1.1 mph -999.0 mph 62 % 0 in
11:48 46.2 °F 33.9 °F 30.13 in NW 2.2 mph -999.0 mph 62 % 0 in
12:03 48.4 °F 33.9 °F 30.13 in WSW 1.7 mph -999.0 mph 57 % 0 in
12:19 49.3 °F 33.4 °F 30.12 in NNW 4.7 mph -999.0 mph 54 % 0 in
12:34 50.7 °F 35.1 °F 30.12 in North 1.7 mph -999.0 mph 55 % 0 in
12:49 50.7 °F 35.6 °F 30.12 in SSW 2.7 mph -999.0 mph 56 % 0 in
13:04 49.5 °F 34.4 °F 30.12 in NW 4.2 mph -999.0 mph 56 % 0 in
13:19 49.8 °F 29.8 °F 30.11 in ESE 1.7 mph -999.0 mph 46 % 0 in
13:35 49.8 °F 34.3 °F 30.11 in SE 3.2 mph -999.0 mph 55 % 0 in
13:50 50.5 °F 32.5 °F 30.11 in SW 2.7 mph -999.0 mph 50 % 0 in
14:06 50.2 °F 35.5 °F 30.11 in NW 4.2 mph -999.0 mph 57 % 0 in
14:21 49.8 °F 33.3 °F 30.11 in SW 2.2 mph -999.0 mph 53 % 0 in
14:36 50.2 °F 33.7 °F 30.10 in Calm   -999.0 mph 53 % 0 in
14:51 46.0 °F 33.7 °F 30.10 in SW 1.7 mph -999.0 mph 62 % 0 in
15:07 48.4 °F 35.2 °F 30.10 in South 2.7 mph -999.0 mph 60 % 0 in
15:22 47.5 °F 34.7 °F 30.10 in West 1.7 mph -999.0 mph 61 % 0 in
15:37 48.0 °F 33.9 °F 30.10 in NNW 7.3 mph -999.0 mph 58 % 0 in
15:52 47.7 °F 35.3 °F 30.10 in South 4.7 mph -999.0 mph 62 % 0 in
16:07 45.7 °F 35.4 °F 30.10 in West 2.2 mph -999.0 mph 67 % 0 in
16:23 45.0 °F 34.3 °F 30.09 in WSW 1.7 mph -999.0 mph 66 % 0 in
16:38 44.8 °F 35.6 °F 30.09 in NW 3.7 mph -999.0 mph 70 % 0 in
16:53 45.1 °F 35.2 °F 30.09 in NW 3.2 mph -999.0 mph 68 % 0 in
17:08 47.1 °F 34.3 °F 30.09 in WNW 4.7 mph -999.0 mph 61 % 0 in
17:23 45.3 °F 35.0 °F 30.10 in ENE 4.7 mph -999.0 mph 67 % 0 in
17:39 43.7 °F 34.9 °F 30.10 in WNW 5.3 mph -999.0 mph 71 % 0 in
17:54 42.6 °F 34.2 °F 30.10 in NW 5.8 mph -999.0 mph 72 % 0 in
18:09 41.5 °F 34.2 °F 30.09 in NW 2.2 mph -999.0 mph 75 % 0 in
18:25 40.5 °F 34.2 °F 30.10 in NNW 3.2 mph -999.0 mph 78 % 0 in
18:40 39.9 °F 33.9 °F 30.10 in Calm   -999.0 mph 79 % 0 in
18:55 38.8 °F 33.2 °F 30.10 in Calm   -999.0 mph 80 % 0 in
19:10 38.1 °F 32.8 °F 30.10 in Calm   -999.0 mph 81 % 0 in
19:25 37.2 °F 32.8 °F 30.10 in Calm   -999.0 mph 84 % 0 in
19:41 36.7 °F 32.0 °F 30.09 in Calm   -999.0 mph 83 % 0 in
19:56 36.9 °F 32.5 °F 30.10 in Calm   -999.0 mph 84 % 0 in
20:11 36.7 °F 32.9 °F 30.10 in Calm   -999.0 mph 86 % 0 in
20:26 37.0 °F 33.2 °F 30.10 in Calm   -999.0 mph 86 % 0 in
20:41 37.0 °F 32.9 °F 30.11 in Calm   -999.0 mph 85 % 0 in
20:57 37.0 °F 32.3 °F 30.11 in Calm   -999.0 mph 83 % 0 in
21:12 36.1 °F 32.0 °F 30.11 in Calm   -999.0 mph 85 % 0 in
21:27 35.4 °F 31.6 °F 30.12 in South 1.1 mph -999.0 mph 86 % 0 in
21:42 34.5 °F 31.0 °F 30.12 in SSE 1.1 mph -999.0 mph 87 % 0 in
21:58 33.8 °F 30.6 °F 30.12 in South 1.7 mph -999.0 mph 88 % 0 in
22:13 32.9 °F 29.7 °F 30.12 in Calm   -999.0 mph 88 % 0 in
22:28 32.2 °F 29.6 °F 30.11 in South 1.7 mph -999.0 mph 90 % 0 in
22:43 32.2 °F 29.9 °F 30.11 in South 1.7 mph -999.0 mph 91 % 0 in
22:58 31.6 °F 29.3 °F 30.11 in Calm   -999.0 mph 91 % 0 in
23:14 30.9 °F 28.9 °F 30.11 in Calm   -999.0 mph 92 % 0 in
23:29 30.6 °F 28.6 °F 30.11 in Calm   -999.0 mph 92 % 0 in
23:44 30.2 °F 28.2 °F 30.11 in Calm   -999.0 mph 92 % 0 in
23:59 29.8 °F 27.8 °F 30.11 in Calm   -999.0 mph 92 % 0 in
Big Bear CA Weather
Compliments of Weather Underground - 1.5 mb